• Join FlightAware (Why Join?)
  • Login
  • US Flag 
02:00AM EDT


 

Airport Tracker/Info


-or-


 

Live Flight TrackerFlight Track Log ✈ TAM3782 ✈ 16-Sep-2013 ✈ SBBR / BSB - SBJP / JPA

Flight Track Log - Related Links

Times and Time Zones

All times are in EDT time to prevent confusion due to time zone crossing. See the TAM3782 flight status page for this flight to view local times or setup timezone preferences in your user account.

Time Position Orientation Groundspeed Altitude Reporting Facility
EDT Latitude Longitude Course Direction KTS MPH feet Rate Location/Type
10:16PM -15.1020 -46.7054 57° Northeast  Level Estimated
10:17PM -15.0432 -46.6129 57° Northeast  Level Estimated
10:18PM -14.9844 -46.5204 57° Northeast  Level Estimated
10:19PM -14.9255 -46.4280 57° Northeast  Level Estimated
10:20PM -14.8666 -46.3357 57° Northeast  Level Estimated
10:21PM -14.8077 -46.2434 57° Northeast  Level Estimated
10:22PM -14.7488 -46.1511 57° Northeast  Level Estimated
10:23PM -14.6898 -46.0589 57° Northeast  Level Estimated
10:24PM -14.6307 -45.9668 57° Northeast  Level Estimated
10:25PM -14.5677 -45.8685 56° Northeast  Level Estimated
10:26PM -14.5047 -45.7703 56° Northeast  Level Estimated
10:27PM -14.4416 -45.6722 56° Northeast  Level Estimated
10:28PM -14.3785 -45.5741 56° Northeast  Level Estimated
10:29PM -14.3153 -45.4761 56° Northeast  Level Estimated
10:30PM -14.2521 -45.3781 56° Northeast  Level Estimated
10:31PM -14.1888 -45.2802 56° Northeast  Level Estimated
10:32PM -14.1255 -45.1824 56° Northeast  Level Estimated
10:33PM -14.0622 -45.0846 56° Northeast  Level Estimated
10:34PM -13.9988 -44.9868 56° Northeast  Level Estimated
10:35PM -13.9354 -44.8891 56° Northeast  Level Estimated
10:36PM -13.8720 -44.7915 56° Northeast  Level Estimated
10:37PM -13.8085 -44.6939 56° Northeast  Level Estimated
10:38PM -13.7450 -44.5964 56° Northeast  Level Estimated
10:39PM -13.6814 -44.4989 56° Northeast  Level Estimated
10:40PM -13.6178 -44.4015 56° Northeast  Level Estimated
10:41PM -13.5541 -44.3041 56° Northeast  Level Estimated
10:42PM -13.4905 -44.2068 56° Northeast  Level Estimated
10:43PM -13.4268 -44.1095 56° Northeast  Level Estimated
10:44PM -13.3630 -44.0123 56° Northeast  Level Estimated
10:45PM -13.2992 -43.9151 56° Northeast  Level Estimated
10:46PM -13.2354 -43.8180 56° Northeast  Level Estimated
10:47PM -13.1715 -43.7210 56° Northeast  Level Estimated
10:48PM -13.1076 -43.6239 56° Northeast  Level Estimated
10:49PM -13.0437 -43.5270 56° Northeast  Level Estimated
10:50PM -12.9797 -43.4301 56° Northeast  Level Estimated
10:51PM -12.9157 -43.3332 56° Northeast  Level Estimated
10:52PM -12.8517 -43.2364 56° Northeast  Level Estimated
10:53PM -12.7876 -43.1396 56° Northeast  Level Estimated
10:54PM -12.7235 -43.0429 56° Northeast  Level Estimated
10:55PM -12.6593 -42.9463 56° Northeast  Level Estimated
10:56PM -12.5951 -42.8496 56° Northeast  Level Estimated
10:57PM -12.5309 -42.7531 56° Northeast  Level Estimated
10:58PM -12.4667 -42.6565 56° Northeast  Level Estimated
10:59PM -12.4024 -42.5601 56° Northeast  Level Estimated
11:00PM -12.3380 -42.4636 56° Northeast  Level Estimated
11:01PM -12.2737 -42.3673 56° Northeast  Level Estimated
11:02PM -12.2093 -42.2709 56° Northeast  Level Estimated
11:03PM -12.1449 -42.1746 56° Northeast  Level Estimated
11:04PM -12.0804 -42.0784 56° Northeast  Level Estimated
11:05PM -12.0159 -41.9822 56° Northeast  Level Estimated
11:06PM -11.9514 -41.8861 56° Northeast  Level Estimated
11:07PM -11.8869 -41.7900 56° Northeast  Level Estimated
11:08PM -11.8223 -41.6939 56° Northeast  Level Estimated
11:09PM -11.7576 -41.5979 55° Northeast  Level Estimated
11:10PM -11.6930 -41.5019 55° Northeast  Level Estimated
11:11PM -11.6283 -41.4060 55° Northeast  Level Estimated
11:12PM -11.5636 -41.3102 55° Northeast  Level Estimated
11:13PM -11.4988 -41.2143 55° Northeast  Level Estimated
11:14PM -11.4341 -41.1185 55° Northeast  Level Estimated
11:15PM -11.3693 -41.0228 55° Northeast  Level Estimated
11:16PM -11.3044 -40.9271 55° Northeast  Level Estimated
11:17PM -11.2395 -40.8315 55° Northeast  Level Estimated
11:18PM -11.1746 -40.7358 55° Northeast  Level Estimated
11:19PM -11.1097 -40.6403 55° Northeast  Level Estimated
11:20PM -11.0448 -40.5447 55° Northeast  Level Estimated
11:21PM -10.9798 -40.4493 55° Northeast  Level Estimated
11:22PM -10.9147 -40.3538 55° Northeast  Level Estimated
11:23PM -10.8497 -40.2584 55° Northeast  Level Estimated
11:24PM -10.7846 -40.1631 55° Northeast  Level Estimated
11:25PM -10.7195 -40.0677 55° Northeast  Level Estimated
11:26PM -10.6544 -39.9725 55° Northeast  Level Estimated
11:27PM -10.5892 -39.8772 55° Northeast  Level Estimated
11:28PM -10.5240 -39.7820 55° Northeast  Level Estimated
11:29PM -10.4588 -39.6869 55° Northeast  Level Estimated
11:30PM -10.3935 -39.5917 55° Northeast  Level Estimated
11:31PM -10.3282 -39.4967 55° Northeast  Level Estimated
11:32PM -10.2629 -39.4016 55° Northeast  Level Estimated
11:33PM -10.1976 -39.3066 55° Northeast  Level Estimated
11:34PM -10.1322 -39.2117 55° Northeast  Level Estimated
11:35PM -10.0668 -39.1167 55° Northeast  Level Estimated
11:36PM -10.0014 -39.0219 55° Northeast  Level Estimated
11:37PM -9.9360 -38.9270 55° Northeast  Level Estimated
11:38PM -9.8705 -38.8322 55° Northeast  Level Estimated
11:39PM -9.8050 -38.7374 55° Northeast  Level Estimated
11:40PM -9.7395 -38.6427 55° Northeast  Level Estimated
11:41PM -9.6739 -38.5480 55° Northeast  Level Estimated
11:42PM -9.6083 -38.4534 55° Northeast  Level Estimated
11:43PM -9.5428 -38.3588 55° Northeast  Level Estimated
11:44PM -9.4771 -38.2642 55° Northeast  Level Estimated
11:45PM -9.4115 -38.1696 55° Northeast  Level Estimated
11:46PM -9.3458 -38.0751 55° Northeast  Level Estimated
11:47PM -9.2801 -37.9807 55° Northeast  Level Estimated
11:48PM -9.2144 -37.8862 55° Northeast  Level Estimated
11:49PM -9.1486 -37.7918 55° Northeast  Level Estimated
11:50PM -9.0828 -37.6974 55° Northeast  Level Estimated
11:51PM -9.0170 -37.6031 55° Northeast  Level Estimated
11:52PM -8.9512 -37.5088 55° Northeast  Level Estimated
11:53PM -8.8854 -37.4145 55° Northeast  Level Estimated
11:54PM -8.8195 -37.3203 55° Northeast  Level Estimated
11:55PM -8.7536 -37.2261 55° Northeast  Level Estimated
11:56PM -8.6877 -37.1320 55° Northeast  Level Estimated
11:57PM -8.6217 -37.0378 55° Northeast  Level Estimated
11:58PM -8.5557 -36.9437 55° Northeast  Level Estimated
11:59PM -8.4898 -36.8497 55° Northeast  Level Estimated
12:00AM -8.4237 -36.7556 55° Northeast  Level Estimated
12:01AM -8.3577 -36.6616 55° Northeast  Level Estimated
12:02AM -8.2917 -36.5676 55° Northeast  Level Estimated
12:03AM -8.2256 -36.4737 55° Northeast  Level Estimated
12:04AM -8.1595 -36.3798 55° Northeast  Level Estimated
12:05AM -8.0934 -36.2859 55° Northeast  Level Estimated
12:06AM -8.0272 -36.1921 55° Northeast  Level Estimated
12:07AM -7.9611 -36.0983 55° Northeast  Level Estimated
12:08AM -7.8949 -36.0045 55° Northeast  Level Estimated
12:09AM -7.8287 -35.9107 55° Northeast  Level Estimated
12:10AM -7.7624 -35.8170 55° Northeast  Level Estimated
12:11AM -7.6962 -35.7233 54° Northeast  Level Estimated
12:12AM -7.6299 -35.6296 54° Northeast  Level Estimated
12:13AM -7.5636 -35.5360 54° Northeast  Level Estimated
12:14AM -7.4973 -35.4424 54° Northeast  Level Estimated
12:15AM -7.4310 -35.3488 54° Northeast  Level Estimated
12:16AM -7.3646 -35.2553 54° Northeast  Level Estimated
12:17AM -7.2983 -35.1617 54° Northeast  Level Estimated
12:18AM -7.2319 -35.0682 54° Northeast  Level Estimated
12:19AM -7.1590 -34.9657 54° Northeast  Level Estimated
12:20AM -7.1484 -34.9507 54° Northeast  Level Estimated
12:21AM -7.1484 -34.9507 225° Southwest  Level Estimated
12:22AM -7.1484 -34.9507 225° Southwest  Level Estimated